createdAt,value
2017-10-09T00:02:01.744Z,2.70
2017-10-09T00:04:29.910Z,2.13
2017-10-09T00:06:58.448Z,2.90
2017-10-09T00:09:26.571Z,3.40
2017-10-09T00:11:55.023Z,2.47
2017-10-09T00:14:23.198Z,3.13
2017-10-09T00:16:51.373Z,2.40
2017-10-09T00:19:19.750Z,3.97
2017-10-09T00:21:47.915Z,2.87
2017-10-09T00:24:16.113Z,1.87
2017-10-09T00:26:44.416Z,2.00
2017-10-09T00:29:12.762Z,4.67
2017-10-09T00:31:41.278Z,1.87
2017-10-09T00:34:09.453Z,5.27
2017-10-09T00:36:37.531Z,2.00
2017-10-09T00:39:05.749Z,2.77
2017-10-09T00:41:34.164Z,2.30
2017-10-09T00:44:02.338Z,4.60
2017-10-09T00:46:30.675Z,3.93
2017-10-09T00:48:59.080Z,2.83
2017-10-09T00:51:27.770Z,6.00
2017-10-09T00:53:55.922Z,3.47
2017-10-09T00:56:24.462Z,4.73
2017-10-09T00:58:52.598Z,4.20
2017-10-09T01:01:20.741Z,1.70
2017-10-09T01:03:48.946Z,4.03
2017-10-09T01:06:17.388Z,3.73
2017-10-09T01:08:45.543Z,2.60
2017-10-09T01:11:13.759Z,1.90
2017-10-09T01:13:41.918Z,2.47
2017-10-09T01:16:10.426Z,2.57
2017-10-09T01:18:38.782Z,2.90
2017-10-09T01:21:07.086Z,1.80
2017-10-09T01:23:35.224Z,3.23
2017-10-09T01:26:03.377Z,1.80
2017-10-09T01:28:32.255Z,4.53
2017-10-09T01:31:00.395Z,2.40
2017-10-09T01:33:28.800Z,3.00
2017-10-09T01:35:56.942Z,3.20
2017-10-09T01:38:25.490Z,2.20
2017-10-09T01:40:54.351Z,2.50
2017-10-09T01:43:22.498Z,3.30
2017-10-09T01:45:50.878Z,5.13
2017-10-09T01:48:19.002Z,3.23
2017-10-09T01:50:47.913Z,3.97
2017-10-09T01:53:16.034Z,3.23
2017-10-09T01:55:44.182Z,1.87
2017-10-09T01:58:12.465Z,2.30
2017-10-09T02:00:40.607Z,3.37
2017-10-09T02:03:09.066Z,1.20
2017-10-09T02:05:37.206Z,2.20
2017-10-09T02:08:05.410Z,1.40
2017-10-09T02:10:34.312Z,1.43
2017-10-09T02:13:03.203Z,1.87
2017-10-09T02:15:32.090Z,2.40
2017-10-09T02:18:00.934Z,1.93
2017-10-09T02:20:29.056Z,2.50
2017-10-09T02:22:57.998Z,2.57
2017-10-09T02:25:26.680Z,3.47
2017-10-09T02:27:54.907Z,1.37
2017-10-09T02:30:23.831Z,3.50
2017-10-09T02:32:52.001Z,1.33
2017-10-09T02:35:20.478Z,2.20
2017-10-09T02:37:48.783Z,2.83
2017-10-09T02:40:17.342Z,2.10
2017-10-09T02:42:45.487Z,2.60
2017-10-09T02:45:13.613Z,2.53
2017-10-09T02:47:41.783Z,2.50
2017-10-09T02:50:09.890Z,2.50
2017-10-09T02:52:38.238Z,2.33
2017-10-09T02:55:06.402Z,1.50
2017-10-09T02:57:34.627Z,2.40
2017-10-09T03:00:03.659Z,1.97
2017-10-09T03:02:32.274Z,2.77
2017-10-09T03:05:00.446Z,1.63
2017-10-09T03:07:28.587Z,1.60
2017-10-09T03:09:56.818Z,2.30
2017-10-09T03:12:24.986Z,1.80
2017-10-09T03:14:53.546Z,1.73
2017-10-09T03:17:21.789Z,3.53
2017-10-09T03:19:49.979Z,3.13
2017-10-09T03:22:18.174Z,2.90
2017-10-09T03:24:46.388Z,0.80
2017-10-09T03:27:14.647Z,3.20
2017-10-09T03:29:43.382Z,2.27
2017-10-09T03:32:11.574Z,2.40
2017-10-09T03:34:39.803Z,1.37
2017-10-09T03:37:07.992Z,3.63
2017-10-09T03:39:36.519Z,3.33
2017-10-09T03:42:04.728Z,1.13
2017-10-09T03:44:32.901Z,2.13
2017-10-09T03:47:01.015Z,3.10
2017-10-09T03:49:29.230Z,3.33
2017-10-09T03:51:57.407Z,1.73
2017-10-09T03:54:26.071Z,2.33
2017-10-09T03:56:54.194Z,2.07
2017-10-09T03:59:23.031Z,2.40
2017-10-09T04:01:51.168Z,2.63
2017-10-09T04:04:19.317Z,1.30
2017-10-09T04:06:47.466Z,2.13
2017-10-09T04:09:15.587Z,2.17
2017-10-09T04:11:43.778Z,3.00
2017-10-09T04:14:11.908Z,3.00
2017-10-09T04:16:41.530Z,2.10
2017-10-09T04:19:10.384Z,3.13
2017-10-09T04:21:38.926Z,2.60
2017-10-09T04:24:07.789Z,3.17
2017-10-09T04:26:36.668Z,2.07
2017-10-09T04:29:04.917Z,4.40
2017-10-09T04:31:33.117Z,2.47
2017-10-09T04:34:01.370Z,2.00
2017-10-09T04:36:29.542Z,5.33
2017-10-09T04:38:57.695Z,3.07
2017-10-09T04:41:26.055Z,3.07
2017-10-09T04:43:54.558Z,2.83
2017-10-09T04:46:22.807Z,5.80
2017-10-09T04:48:51.011Z,3.20
2017-10-09T04:51:19.196Z,2.90
2017-10-09T04:53:47.332Z,2.90
2017-10-09T04:56:16.185Z,4.80
2017-10-09T04:58:44.410Z,6.37
2017-10-09T05:01:12.632Z,4.60
2017-10-09T05:03:40.783Z,5.70
2017-10-09T05:06:09.406Z,3.23
2017-10-09T05:08:39.082Z,3.23
2017-10-09T05:11:07.214Z,4.80
2017-10-09T05:13:35.377Z,3.30
2017-10-09T05:16:03.528Z,5.57
2017-10-09T05:18:31.701Z,3.73
2017-10-09T05:20:59.862Z,3.77
2017-10-09T05:23:28.347Z,3.73
2017-10-09T05:25:56.466Z,2.70
2017-10-09T05:28:24.587Z,3.30
2017-10-09T05:30:52.700Z,3.13
2017-10-09T05:33:21.607Z,8.13
2017-10-09T05:35:50.470Z,3.67
2017-10-09T05:38:18.607Z,6.07
2017-10-09T05:40:46.727Z,4.63
2017-10-09T05:43:14.867Z,2.97
2017-10-09T05:45:42.971Z,5.03
2017-10-09T05:48:12.269Z,4.30
2017-10-09T05:50:40.379Z,1.90
2017-10-09T05:53:08.558Z,2.83
2017-10-09T05:55:36.725Z,2.70
2017-10-09T05:58:04.861Z,3.60
2017-10-09T06:00:32.970Z,3.87
2017-10-09T06:03:01.065Z,2.20
2017-10-09T06:05:29.192Z,3.43
2017-10-09T06:07:58.091Z,4.87
2017-10-09T06:10:27.250Z,3.90
2017-10-09T06:12:55.374Z,3.53
2017-10-09T06:15:23.493Z,3.93
2017-10-09T06:17:51.614Z,4.07
2017-10-09T06:20:20.485Z,2.53
2017-10-09T06:22:49.350Z,3.70
2017-10-09T06:25:17.518Z,6.23
2017-10-09T06:27:45.610Z,2.50
2017-10-09T06:30:13.709Z,2.20
2017-10-09T06:32:41.865Z,2.23
2017-10-09T06:35:10.366Z,3.23
2017-10-09T06:37:38.468Z,3.30
2017-10-09T06:40:06.602Z,4.73
2017-10-09T06:42:34.726Z,3.97
2017-10-09T06:45:02.859Z,2.80
2017-10-09T06:47:31.722Z,2.40
2017-10-09T06:50:00.792Z,3.37
2017-10-09T06:52:28.930Z,2.40
2017-10-09T06:54:57.602Z,2.17
2017-10-09T06:57:26.449Z,6.10
2017-10-09T06:59:54.599Z,4.93
2017-10-09T07:02:22.709Z,3.83
2017-10-09T07:04:50.850Z,2.23
2017-10-09T07:07:18.952Z,2.60
2017-10-09T07:09:47.774Z,3.80
2017-10-09T07:12:16.242Z,3.80
2017-10-09T07:14:44.337Z,2.80
2017-10-09T07:17:12.494Z,2.27
2017-10-09T07:19:41.375Z,3.10
2017-10-09T07:22:09.470Z,2.87
2017-10-09T07:24:37.618Z,2.93
2017-10-09T07:27:05.738Z,2.00
2017-10-09T07:29:33.867Z,1.70
2017-10-09T07:32:02.310Z,5.00
2017-10-09T07:34:30.422Z,7.57
2017-10-09T07:36:58.525Z,1.63
2017-10-09T07:39:26.631Z,1.33
2017-10-09T07:41:54.732Z,1.53
2017-10-09T07:44:22.841Z,2.10
2017-10-09T07:46:50.930Z,1.50
2017-10-09T07:49:19.054Z,3.03
2017-10-09T07:51:47.534Z,0.93
2017-10-09T07:54:15.682Z,1.67
2017-10-09T07:56:43.775Z,4.10
2017-10-09T07:59:11.858Z,2.90
2017-10-09T08:01:40.007Z,2.93
2017-10-09T08:07:07.703Z,1.47
2017-10-09T08:09:36.059Z,4.57
2017-10-09T08:12:04.542Z,1.63
2017-10-09T08:14:32.678Z,1.77
2017-10-09T08:17:01.214Z,3.20
2017-10-09T08:19:30.052Z,2.23
2017-10-09T08:21:58.161Z,2.40
2017-10-09T08:24:26.275Z,2.50
2017-10-09T08:26:55.131Z,4.53
2017-10-09T08:29:23.247Z,2.93
2017-10-09T08:31:52.130Z,3.63
2017-10-09T08:34:21.060Z,4.03
2017-10-09T08:36:49.169Z,2.33
2017-10-09T08:39:17.542Z,2.67
2017-10-09T08:41:45.635Z,6.67
2017-10-09T08:44:14.809Z,2.83
2017-10-09T08:46:42.888Z,1.23
2017-10-09T08:49:11.007Z,4.97
2017-10-09T08:51:39.120Z,3.90
2017-10-09T08:54:07.294Z,2.63
2017-10-09T08:56:35.610Z,3.50
2017-10-09T08:59:03.751Z,2.73
2017-10-09T09:01:31.872Z,3.33
2017-10-09T09:04:00.358Z,2.57
2017-10-09T09:06:28.515Z,1.67
2017-10-09T09:08:56.623Z,1.90
2017-10-09T09:11:24.964Z,1.90
2017-10-09T09:13:53.824Z,4.00
2017-10-09T09:16:21.936Z,1.83
2017-10-09T09:18:50.831Z,1.77
2017-10-09T09:21:18.943Z,2.07
2017-10-09T09:23:47.051Z,3.13
2017-10-09T09:26:15.138Z,3.87
2017-10-09T09:28:43.706Z,1.77
2017-10-09T09:31:11.838Z,3.17
2017-10-09T09:33:40.016Z,2.10
2017-10-09T09:36:08.125Z,5.00
2017-10-09T09:38:36.230Z,3.00
2017-10-09T09:41:04.334Z,2.73
2017-10-09T09:43:32.438Z,5.77
2017-10-09T09:46:00.538Z,6.90
2017-10-09T09:48:28.729Z,2.13
2017-10-09T09:50:56.875Z,3.67
2017-10-09T09:53:25.303Z,4.30
2017-10-09T09:55:53.410Z,2.20
2017-10-09T09:58:21.510Z,3.27
2017-10-09T10:00:49.972Z,4.20
2017-10-09T10:03:18.119Z,5.37
2017-10-09T10:05:46.423Z,5.43
2017-10-09T10:08:14.544Z,6.00
2017-10-09T10:10:42.678Z,3.67
2017-10-09T10:13:11.237Z,3.20
2017-10-09T10:15:39.334Z,3.10
2017-10-09T10:18:08.199Z,5.43
2017-10-09T10:20:36.330Z,2.87
2017-10-09T10:23:04.443Z,1.83
2017-10-09T10:25:32.546Z,2.30
2017-10-09T10:28:00.655Z,2.23
2017-10-09T10:30:28.783Z,3.30
2017-10-09T10:32:57.673Z,4.00
2017-10-09T10:35:26.155Z,1.73
2017-10-09T10:37:55.011Z,3.70
2017-10-09T10:40:23.103Z,1.40
2017-10-09T10:42:51.230Z,0.97
2017-10-09T10:45:19.358Z,2.50
2017-10-09T10:47:47.698Z,4.97
2017-10-09T10:50:15.810Z,1.10
2017-10-09T10:52:43.959Z,1.37
2017-10-09T10:55:12.102Z,1.13
2017-10-09T10:57:41.698Z,5.00
2017-10-09T11:00:09.831Z,2.07
2017-10-09T11:02:37.924Z,2.50
2017-10-09T11:05:06.070Z,1.83
2017-10-09T11:07:34.171Z,1.73
2017-10-09T11:10:03.255Z,2.70
2017-10-09T11:12:32.138Z,4.73
2017-10-09T11:15:00.286Z,1.73
2017-10-09T11:17:28.426Z,1.73
2017-10-09T11:19:56.552Z,1.57
2017-10-09T11:22:25.043Z,0.93
2017-10-09T11:24:53.155Z,2.10
2017-10-09T11:27:21.287Z,2.70
2017-10-09T11:29:49.427Z,3.50
2017-10-09T11:32:17.522Z,3.90
2017-10-09T11:34:45.646Z,1.47
2017-10-09T11:37:14.903Z,1.00
2017-10-09T11:39:43.423Z,1.10
2017-10-09T11:42:11.550Z,2.90
2017-10-09T11:44:41.702Z,1.80
2017-10-09T11:47:09.814Z,1.33
2017-10-09T11:49:37.933Z,0.83
2017-10-09T11:52:06.806Z,4.33
2017-10-09T11:54:34.920Z,1.60
2017-10-09T11:57:03.051Z,2.23
2017-10-09T11:59:31.167Z,2.80
2017-10-09T12:01:59.576Z,3.23
2017-10-09T12:04:27.687Z,0.77
2017-10-09T12:06:55.814Z,1.03
2017-10-09T12:09:23.950Z,1.00
2017-10-09T12:11:52.802Z,2.00
2017-10-09T12:14:20.924Z,1.47
2017-10-09T12:16:49.773Z,3.70
2017-10-09T12:19:17.922Z,1.30
2017-10-09T12:21:46.050Z,1.30
2017-10-09T12:24:14.226Z,1.97
2017-10-09T12:26:43.527Z,0.93
2017-10-09T12:29:12.420Z,1.40
2017-10-09T12:31:41.270Z,2.50
2017-10-09T12:34:09.385Z,2.60
2017-10-09T12:36:38.229Z,1.47
2017-10-09T12:39:06.334Z,0.90
2017-10-09T12:41:35.208Z,1.50
2017-10-09T12:44:03.391Z,2.30
2017-10-09T12:46:31.530Z,2.13
2017-10-09T12:48:59.683Z,1.60
2017-10-09T12:51:28.130Z,1.60
2017-10-09T12:53:57.014Z,0.70
2017-10-09T12:56:25.144Z,1.07
2017-10-09T12:58:53.280Z,1.47
2017-10-09T13:01:21.390Z,3.20
2017-10-09T13:03:49.516Z,2.23
2017-10-09T13:06:18.392Z,1.93
2017-10-09T13:08:46.527Z,1.83
2017-10-09T13:11:14.700Z,0.83
2017-10-09T13:13:42.878Z,3.53
2017-10-09T13:16:11.335Z,1.23
2017-10-09T13:18:39.470Z,0.97
2017-10-09T13:21:07.646Z,1.53
2017-10-09T13:23:35.797Z,3.37
2017-10-09T13:26:04.012Z,3.27
2017-10-09T13:28:32.960Z,2.20
2017-10-09T13:31:01.257Z,1.70
2017-10-09T13:33:29.451Z,3.37
2017-10-09T13:35:58.411Z,3.60
2017-10-09T13:38:26.758Z,0.90
2017-10-09T13:40:54.994Z,0.90
2017-10-09T13:43:23.522Z,0.90
2017-10-09T13:45:51.666Z,1.03
2017-10-09T13:48:21.027Z,2.07
2017-10-09T13:50:49.252Z,0.60
2017-10-09T13:53:17.444Z,1.40
2017-10-09T13:55:45.635Z,0.87
2017-10-09T13:58:13.982Z,1.63
2017-10-09T14:00:42.309Z,1.80
2017-10-09T14:03:10.525Z,0.73
2017-10-09T14:05:38.739Z,1.43
2017-10-09T14:08:06.916Z,1.10
2017-10-09T14:10:35.130Z,1.90
2017-10-09T14:13:03.342Z,1.30
2017-10-09T14:15:31.904Z,0.90
2017-10-09T14:18:00.266Z,1.80
2017-10-09T14:20:28.449Z,0.40
2017-10-09T14:22:56.981Z,1.00
2017-10-09T14:25:25.232Z,2.00
2017-10-09T14:27:54.313Z,1.53
2017-10-09T14:30:22.488Z,0.80
2017-10-09T14:40:15.869Z,1.10
2017-10-09T14:42:45.498Z,1.10
2017-10-09T14:45:14.474Z,1.07
2017-10-09T14:47:43.067Z,1.27
2017-10-09T14:50:11.243Z,1.60
2017-10-09T14:52:39.769Z,1.00
2017-10-09T14:55:07.895Z,1.20
2017-10-09T14:57:35.995Z,2.17
2017-10-09T15:00:04.230Z,0.80
2017-10-09T15:02:32.353Z,1.40
2017-10-09T15:05:00.489Z,1.47
2017-10-09T15:07:28.642Z,1.37
2017-10-09T15:09:57.207Z,1.00
2017-10-09T15:12:25.342Z,1.60
2017-10-09T15:14:54.435Z,1.70
2017-10-09T15:17:22.580Z,2.97
2017-10-09T15:19:50.782Z,2.13
2017-10-09T15:22:19.107Z,3.57
2017-10-09T15:24:47.252Z,1.23
2017-10-09T15:27:15.375Z,2.63
2017-10-09T15:29:43.823Z,1.47
2017-10-09T15:32:11.958Z,1.00
2017-10-09T15:34:40.099Z,1.40
2017-10-09T15:37:08.247Z,0.83
2017-10-09T15:39:36.380Z,0.83
2017-10-09T15:42:05.339Z,1.50
2017-10-09T15:44:33.471Z,2.73
2017-10-09T15:47:01.619Z,1.53
2017-10-09T15:49:29.763Z,1.80
2017-10-09T15:51:57.945Z,1.60
2017-10-09T15:54:28.078Z,3.03
2017-10-09T15:56:56.215Z,1.70
2017-10-09T15:59:24.424Z,1.50
2017-10-09T16:01:52.640Z,1.60
2017-10-09T16:04:20.879Z,1.63
2017-10-09T16:06:49.789Z,2.30
2017-10-09T16:09:17.906Z,1.87
2017-10-09T16:11:46.331Z,2.40
2017-10-09T16:14:15.247Z,2.73
2017-10-09T16:16:43.395Z,2.27
2017-10-09T16:19:11.524Z,2.27
2017-10-09T16:21:39.682Z,2.10
2017-10-09T16:24:07.813Z,3.23
2017-10-09T16:26:35.955Z,2.57
2017-10-09T16:29:04.410Z,2.87
2017-10-09T16:31:32.507Z,1.90
2017-10-09T16:34:00.635Z,4.13
2017-10-09T16:36:28.754Z,5.07
2017-10-09T16:38:56.879Z,2.40
2017-10-09T16:41:25.012Z,2.67
2017-10-09T16:43:53.888Z,2.60
2017-10-09T16:46:22.017Z,2.63
2017-10-09T16:48:50.164Z,3.40
2017-10-09T16:51:18.287Z,2.60
2017-10-09T16:53:46.844Z,3.40
2017-10-09T16:56:14.976Z,3.57
2017-10-09T16:58:43.115Z,4.10
2017-10-09T17:01:11.223Z,2.97
2017-10-09T17:03:39.359Z,3.57
2017-10-09T17:06:07.570Z,5.53
2017-10-09T17:08:35.708Z,5.50
2017-10-09T17:11:03.823Z,5.73
2017-10-09T17:13:32.026Z,6.03
2017-10-09T17:16:00.911Z,4.17
2017-10-09T17:18:30.215Z,3.30
2017-10-09T17:20:58.351Z,2.67
2017-10-09T17:23:26.495Z,2.33
2017-10-09T17:25:54.654Z,2.33
2017-10-09T17:28:22.807Z,1.90
2017-10-09T17:30:50.940Z,2.00
2017-10-09T17:33:19.090Z,3.60
2017-10-09T17:35:47.223Z,2.60
2017-10-09T17:38:15.867Z,2.40
2017-10-09T17:40:44.067Z,2.50
2017-10-09T17:43:12.958Z,2.90
2017-10-09T17:45:41.882Z,2.63
2017-10-09T17:48:10.043Z,3.10
2017-10-09T17:50:38.170Z,2.70
2017-10-09T17:53:06.327Z,2.47
2017-10-09T17:55:34.459Z,3.77
2017-10-09T17:58:02.578Z,3.30
2017-10-09T18:00:30.699Z,2.93
2017-10-09T18:02:59.591Z,3.57
2017-10-09T18:05:28.523Z,4.30
2017-10-09T18:07:56.655Z,3.97
2017-10-09T18:10:24.788Z,5.77
2017-10-09T18:12:52.926Z,4.53
2017-10-09T18:15:21.098Z,4.37
2017-10-09T18:17:49.651Z,4.07
2017-10-09T18:20:17.798Z,4.63
2017-10-09T18:22:45.932Z,4.40
2017-10-09T18:25:14.115Z,4.03
2017-10-09T18:27:43.058Z,3.30
2017-10-09T18:30:11.190Z,2.63
2017-10-09T18:32:39.311Z,2.60
2017-10-09T18:35:07.477Z,2.73
2017-10-09T18:37:36.107Z,2.33
2017-10-09T18:40:04.271Z,3.20
2017-10-09T18:42:32.488Z,2.27
2017-10-09T18:45:00.729Z,2.50
2017-10-09T18:47:28.927Z,2.53
2017-10-09T18:49:57.111Z,3.70
2017-10-09T18:52:25.247Z,3.30
2017-10-09T18:54:53.374Z,2.83
2017-10-09T18:57:22.249Z,2.93
2017-10-09T18:59:50.783Z,2.87
2017-10-09T19:02:19.683Z,2.90
2017-10-09T19:04:47.819Z,3.33
2017-10-09T19:07:15.987Z,2.60
2017-10-09T19:09:44.140Z,3.00
2017-10-09T19:12:12.262Z,2.87
2017-10-09T19:14:40.423Z,3.10
2017-10-09T19:17:08.551Z,3.60
2017-10-09T19:19:36.706Z,3.30
2017-10-09T19:22:05.251Z,3.90
2017-10-09T19:24:34.160Z,3.70
2017-10-09T19:27:03.063Z,3.60
2017-10-09T19:29:31.270Z,3.03
2017-10-09T19:31:59.419Z,2.90
2017-10-09T19:34:27.559Z,3.13
2017-10-09T19:36:55.674Z,2.70
2017-10-09T19:39:23.818Z,3.10
2017-10-09T19:41:52.851Z,3.43
2017-10-09T19:44:21.435Z,3.10
2017-10-09T19:46:49.566Z,3.67
2017-10-09T19:49:17.889Z,3.23
2017-10-09T19:51:46.619Z,3.47
2017-10-09T19:54:14.728Z,3.93
2017-10-09T19:56:43.006Z,3.63
2017-10-09T20:05:34.694Z,3.47
2017-10-09T20:08:04.900Z,5.50
2017-10-09T20:10:33.272Z,2.53
2017-10-09T20:13:01.640Z,2.20
2017-10-09T20:15:30.913Z,1.83
2017-10-09T20:17:59.224Z,1.90
2017-10-09T20:20:29.649Z,1.53
2017-10-09T20:22:58.331Z,1.23
2017-10-09T20:25:26.661Z,1.60
2017-10-09T20:27:55.048Z,1.30
2017-10-09T20:30:25.183Z,2.07
2017-10-09T20:32:53.587Z,0.87
2017-10-09T20:35:22.247Z,0.83
2017-10-09T20:37:50.900Z,1.00
2017-10-09T20:40:19.799Z,0.93
2017-10-09T20:42:48.265Z,1.30
2017-10-09T20:45:16.804Z,1.10
2017-10-09T20:47:46.517Z,1.23
2017-10-09T20:50:15.105Z,1.30
2017-10-09T20:52:43.803Z,3.00
2017-10-09T20:55:12.352Z,1.20
2017-10-09T20:57:40.676Z,1.20
2017-10-09T21:00:09.907Z,2.10
2017-10-09T21:02:38.565Z,1.10
2017-10-09T21:05:07.096Z,0.90
2017-10-09T21:07:36.208Z,1.43
2017-10-09T21:10:04.905Z,1.10
2017-10-09T21:12:33.334Z,0.70
2017-10-09T21:15:02.009Z,1.00
2017-10-09T21:17:30.475Z,0.70
2017-10-09T21:19:59.365Z,1.27
2017-10-09T21:22:28.171Z,1.20
2017-10-09T21:24:56.875Z,0.93
2017-10-09T21:27:25.396Z,0.80
2017-10-09T21:29:53.875Z,1.07
2017-10-09T21:32:22.307Z,0.83
2017-10-09T21:34:50.631Z,1.33
2017-10-09T21:37:20.645Z,1.90
2017-10-09T21:39:50.003Z,1.63
2017-10-09T21:42:18.319Z,1.47
2017-10-09T21:44:46.956Z,3.13
2017-10-09T21:47:15.467Z,2.30
2017-10-09T21:49:44.359Z,1.60
2017-10-09T21:52:13.032Z,2.10
2017-10-09T21:54:41.339Z,1.50
2017-10-09T21:57:09.653Z,2.00
2017-10-09T21:59:39.916Z,2.63
2017-10-09T22:02:08.900Z,2.77
2017-10-09T22:04:37.743Z,2.57
2017-10-09T22:07:06.041Z,2.60
2017-10-09T22:09:34.754Z,2.87
2017-10-09T22:12:03.643Z,2.43
2017-10-09T22:14:32.360Z,2.80
2017-10-09T22:17:00.963Z,3.17
2017-10-09T22:19:29.409Z,3.93
2017-10-09T22:21:58.010Z,3.37
2017-10-09T22:24:26.722Z,4.33
2017-10-09T22:26:55.375Z,4.73
2017-10-09T22:29:24.088Z,4.73
2017-10-09T22:31:53.092Z,4.67
2017-10-09T22:34:21.874Z,5.37
2017-10-09T22:36:50.690Z,4.90
2017-10-09T22:39:19.248Z,5.77
2017-10-09T22:41:47.931Z,6.37
2017-10-09T22:44:16.635Z,6.47
2017-10-09T22:46:45.688Z,5.60
2017-10-09T22:49:14.367Z,6.63
2017-10-09T22:51:43.019Z,8.97
2017-10-09T22:54:11.611Z,8.03
2017-10-09T22:56:40.267Z,8.97
2017-10-09T22:59:09.343Z,9.37
2017-10-09T23:01:38.187Z,11.27
2017-10-09T23:04:06.987Z,10.30
2017-10-09T23:06:35.613Z,11.33
2017-10-09T23:09:04.303Z,10.97
2017-10-09T23:11:33.006Z,12.17
2017-10-09T23:14:02.379Z,14.27
2017-10-09T23:16:30.891Z,13.60
2017-10-09T23:18:59.357Z,15.50
2017-10-09T23:21:28.323Z,12.90
2017-10-09T23:23:57.212Z,13.63
2017-10-09T23:26:26.106Z,13.70
2017-10-09T23:28:55.179Z,14.00
2017-10-09T23:31:23.750Z,14.20
2017-10-09T23:33:52.085Z,14.10
2017-10-09T23:36:21.055Z,14.87
2017-10-09T23:38:49.754Z,17.37
2017-10-09T23:41:19.628Z,16.60
2017-10-09T23:43:48.515Z,17.70
2017-10-09T23:46:17.244Z,17.00
2017-10-09T23:48:45.774Z,17.43
2017-10-09T23:51:14.370Z,16.63
2017-10-09T23:53:43.223Z,20.00
2017-10-09T23:56:11.615Z,16.80
2017-10-09T23:58:40.768Z,16.37
